Time;durP1;ratioP1;P1;durP2;ratioP2;P2;SDS_P1;SDS_P2;PMS_P1;PMS_P2;Temp;Humidity;BMP_temperature;BMP_pressure;BME280_temperature;BME280_humidity;BME280_pressure;Samples;Min_cycle;Max_cycle;Signal;HPM_P1;HPM_P2
2021/01/22 00:00:30;;;;;;;0.90;0.70;;;10.30;99.90;;;;;;5064932;28;20742;-76
2021/01/22 00:02:55;;;;;;;0.60;0.60;;;10.30;99.90;;;;;;5062960;28;20247;-76
2021/01/22 00:05:21;;;;;;;2.30;0.80;;;10.20;99.90;;;;;;5067449;28;20233;-76
2021/01/22 00:07:46;;;;;;;1.47;0.60;;;10.20;99.90;;;;;;5062959;28;20266;-74
2021/01/22 00:10:12;;;;;;;1.20;0.63;;;10.10;99.90;;;;;;5067385;28;20618;-76
2021/01/22 00:12:38;;;;;;;0.80;0.67;;;10.10;99.90;;;;;;5045157;28;20673;-76
2021/01/22 00:15:05;;;;;;;0.50;0.50;;;10.10;99.90;;;;;;5067762;28;20694;-76
2021/01/22 00:17:30;;;;;;;0.70;0.70;;;10.10;99.90;;;;;;5061227;28;20266;-76
2021/01/22 00:19:56;;;;;;;0.80;0.60;;;10.00;99.90;;;;;;5064789;28;21010;-75
2021/01/22 00:22:21;;;;;;;0.80;0.80;;;9.90;99.90;;;;;;5066315;28;20209;-75
2021/01/22 00:24:47;;;;;;;0.60;0.50;;;9.90;99.90;;;;;;5062543;28;20210;-76
2021/01/22 00:27:12;;;;;;;0.90;0.50;;;9.90;99.90;;;;;;5064455;28;20183;-76
2021/01/22 00:29:38;;;;;;;0.67;0.67;;;9.90;99.90;;;;;;5061224;28;20699;-76
2021/01/22 00:32:04;;;;;;;0.47;0.47;;;9.90;99.90;;;;;;5065926;28;20172;-75
2021/01/22 00:34:29;;;;;;;0.70;0.60;;;9.90;99.90;;;;;;5061065;28;20175;-76
2021/01/22 00:36:55;;;;;;;1.27;0.60;;;9.80;99.90;;;;;;5064655;28;20182;-76
2021/01/22 00:39:21;;;;;;;1.00;0.80;;;9.70;99.90;;;;;;5063167;28;20184;-76
2021/01/22 00:41:46;;;;;;;2.40;0.70;;;9.70;99.90;;;;;;5065723;28;20771;-75
2021/01/22 00:44:12;;;;;;;5.23;0.60;;;9.60;99.90;;;;;;5061993;28;20527;-76
2021/01/22 00:46:37;;;;;;;0.70;0.53;;;9.60;99.90;;;;;;5063711;28;20490;-76
2021/01/22 00:49:03;;;;;;;6.53;0.90;;;9.50;99.90;;;;;;5063931;28;20178;-75
2021/01/22 00:51:28;;;;;;;0.53;0.50;;;9.50;99.90;;;;;;5064243;28;20170;-76
2021/01/22 00:53:54;;;;;;;1.57;0.60;;;9.50;99.90;;;;;;5063684;28;20176;-75
2021/01/22 00:56:19;;;;;;;0.50;0.50;;;9.50;99.90;;;;;;5063105;28;20204;-76
2021/01/22 00:58:45;;;;;;;0.70;0.70;;;9.50;99.90;;;;;;5061750;28;20176;-76
2021/01/22 01:01:11;;;;;;;0.60;0.60;;;9.40;99.90;;;;;;5066774;28;20587;-77
2021/01/22 01:03:36;;;;;;;1.37;0.50;;;9.40;99.90;;;;;;5059847;28;20664;-76
2021/01/22 01:06:02;;;;;;;0.60;0.53;;;9.30;99.90;;;;;;5069785;28;20198;-76
2021/01/22 01:08:27;;;;;;;0.70;0.70;;;9.30;99.90;;;;;;5070136;28;20208;-76
2021/01/22 01:10:53;;;;;;;0.50;0.50;;;9.30;99.90;;;;;;5060928;28;20206;-76
2021/01/22 01:13:18;;;;;;;0.97;0.60;;;9.30;99.90;;;;;;5063156;28;20237;-75
2021/01/22 01:15:44;;;;;;;0.60;0.60;;;9.30;99.90;;;;;;5063039;28;20193;-76
2021/01/22 01:18:10;;;;;;;0.73;0.50;;;9.30;99.90;;;;;;5064291;28;20708;-75
2021/01/22 01:20:35;;;;;;;0.70;0.50;;;9.30;99.90;;;;;;5060522;28;20281;-76
2021/01/22 01:23:01;;;;;;;0.60;0.50;;;9.30;99.90;;;;;;5067067;28;20203;-76
2021/01/22 01:25:26;;;;;;;1.23;0.60;;;9.30;99.90;;;;;;5059968;28;20214;-76
2021/01/22 01:27:52;;;;;;;1.00;0.63;;;9.30;99.90;;;;;;5065212;28;20604;-75
2021/01/22 01:30:18;;;;;;;0.70;0.50;;;9.20;99.90;;;;;;5061220;28;20261;-76
2021/01/22 01:32:43;;;;;;;2.10;0.57;;;9.20;99.90;;;;;;5063296;28;20233;-76
2021/01/22 01:35:09;;;;;;;0.93;0.50;;;9.20;99.90;;;;;;5062281;28;20445;-76
2021/01/22 01:37:35;;;;;;;0.50;0.40;;;9.20;99.90;;;;;;5061584;28;20183;-76
2021/01/22 01:40:01;;;;;;;0.50;0.50;;;9.20;99.90;;;;;;5062877;28;20234;-76
2021/01/22 01:42:26;;;;;;;0.50;0.50;;;9.20;99.90;;;;;;5061167;28;20457;-76
2021/01/22 01:44:52;;;;;;;0.80;0.50;;;9.20;99.90;;;;;;5062688;28;20698;-76
2021/01/22 01:47:18;;;;;;;0.47;0.47;;;9.20;99.90;;;;;;5062745;28;20671;-76
2021/01/22 01:49:43;;;;;;;0.77;0.50;;;9.20;99.90;;;;;;5061323;28;20176;-76
2021/01/22 01:52:09;;;;;;;0.40;0.40;;;9.30;99.90;;;;;;5060716;28;20552;-76
2021/01/22 01:54:35;;;;;;;0.50;0.50;;;9.30;99.90;;;;;;5062684;28;20422;-76
2021/01/22 01:57:01;;;;;;;0.50;0.50;;;9.30;99.90;;;;;;5062947;28;20268;-76
2021/01/22 01:59:27;;;;;;;0.90;0.63;;;9.40;99.90;;;;;;5069719;28;20416;-76
2021/01/22 02:01:53;;;;;;;0.60;0.60;;;9.30;99.90;;;;;;5066733;28;20224;-75
2021/01/22 02:04:19;;;;;;;0.90;0.50;;;9.40;99.90;;;;;;5064526;28;20800;-75
2021/01/22 02:06:44;;;;;;;1.13;0.60;;;9.40;99.90;;;;;;5062491;28;20527;-76
2021/01/22 02:09:10;;;;;;;0.63;0.63;;;9.40;99.90;;;;;;5061247;28;20175;-76
2021/01/22 02:11:36;;;;;;;0.80;0.60;;;9.40;99.90;;;;;;5060661;28;20209;-76
2021/01/22 02:14:02;;;;;;;0.50;0.50;;;9.50;99.90;;;;;;5062375;28;20421;-75
2021/01/22 02:16:30;;;;;;;0.53;0.53;;;9.50;99.90;;;;;;5059278;28;20242;-76
2021/01/22 02:18:57;;;;;;;0.70;0.50;;;9.50;99.90;;;;;;5062260;28;20458;-76
2021/01/22 02:21:34;;;;;;;0.50;0.50;;;9.50;99.90;;;;;;5065539;28;20847;-75
2021/01/22 02:24:06;;;;;;;1.00;0.70;;;9.40;99.90;;;;;;5062796;28;20422;-76
2021/01/22 02:26:31;;;;;;;2.47;0.97;;;9.40;99.90;;;;;;5063698;28;20519;-76
2021/01/22 02:29:02;;;;;;;0.97;0.50;;;9.40;99.90;;;;;;5061498;28;20980;-76
2021/01/22 02:31:30;;;;;;;1.40;0.57;;;9.40;99.90;;;;;;5068571;28;20218;-76
2021/01/22 02:34:07;;;;;;;1.63;0.60;;;9.50;99.90;;;;;;5059826;28;20839;-76
2021/01/22 02:36:35;;;;;;;2.50;0.70;;;9.50;99.90;;;;;;5063786;28;20451;-76
2021/01/22 02:39:09;;;;;;;1.30;0.70;;;9.50;99.90;;;;;;5058272;28;20456;-76
2021/01/22 02:41:36;;;;;;;1.50;1.23;;;9.50;99.90;;;;;;5060149;28;20432;-76
2021/01/22 02:44:03;;;;;;;1.47;0.53;;;9.50;99.90;;;;;;5061905;28;20418;-76
2021/01/22 02:46:30;;;;;;;0.63;0.57;;;9.50;99.90;;;;;;5061734;28;20444;-76
2021/01/22 02:48:56;;;;;;;1.63;0.70;;;9.50;99.90;;;;;;5058404;28;20990;-75
2021/01/22 02:51:21;;;;;;;2.77;0.60;;;9.50;99.90;;;;;;5064066;28;20429;-76
2021/01/22 02:53:47;;;;;;;2.80;1.13;;;9.40;99.90;;;;;;5059608;28;20438;-76
2021/01/22 02:56:43;;;;;;;1.73;0.63;;;9.40;99.90;;;;;;5061937;28;20239;-76
2021/01/22 02:59:46;;;;;;;1.43;0.60;;;9.40;99.90;;;;;;5058832;28;20226;-76
2021/01/22 03:02:42;;;;;;;2.00;0.57;;;9.40;99.90;;;;;;5061048;28;20460;-76
2021/01/22 03:05:10;;;;;;;2.50;0.60;;;9.40;99.90;;;;;;5059766;28;20440;-76
2021/01/22 03:07:48;;;;;;;3.30;0.50;;;9.30;99.90;;;;;;5061230;28;20457;-75
2021/01/22 03:10:17;;;;;;;3.80;0.80;;;9.20;99.90;;;;;;5063342;28;20960;-75
2021/01/22 03:12:47;;;;;;;1.90;1.20;;;9.20;99.90;;;;;;5060054;28;20934;-75
2021/01/22 03:15:16;;;;;;;5.47;0.87;;;9.20;99.90;;;;;;5063168;28;20451;-75
2021/01/22 03:17:43;;;;;;;4.90;1.03;;;9.20;99.90;;;;;;5060152;28;20412;-76
2021/01/22 03:20:17;;;;;;;2.93;0.70;;;9.10;99.90;;;;;;5063455;28;20422;-76
2021/01/22 03:22:42;;;;;;;1.60;1.00;;;9.10;99.90;;;;;;5059952;28;20461;-76
2021/01/22 03:25:13;;;;;;;3.77;0.83;;;9.00;99.90;;;;;;5061306;28;20552;-76
2021/01/22 03:27:39;;;;;;;2.50;0.80;;;8.90;99.90;;;;;;5043861;28;20174;-76
2021/01/22 03:30:06;;;;;;;2.93;0.80;;;8.80;99.90;;;;;;5060067;28;20435;-76
2021/01/22 03:32:32;;;;;;;0.80;0.77;;;8.90;99.90;;;;;;5061332;28;20497;-76
2021/01/22 03:34:57;;;;;;;1.60;0.80;;;8.80;99.90;;;;;;5058315;28;20416;-75
2021/01/22 03:37:23;;;;;;;4.23;0.80;;;8.80;99.90;;;;;;5060656;28;20225;-76
2021/01/22 03:39:49;;;;;;;3.50;0.90;;;8.70;99.90;;;;;;5060856;28;20414;-76
2021/01/22 03:42:14;;;;;;;2.07;0.70;;;8.80;99.90;;;;;;5059782;28;20206;-76
2021/01/22 03:44:40;;;;;;;2.93;0.60;;;8.70;99.90;;;;;;5062905;28;20661;-75
2021/01/22 03:47:06;;;;;;;5.70;1.40;;;8.70;99.90;;;;;;5062298;28;20166;-76
2021/01/22 03:49:32;;;;;;;1.33;0.60;;;8.70;99.90;;;;;;5059749;28;20672;-75
2021/01/22 03:52:01;;;;;;;1.07;0.50;;;8.70;99.90;;;;;;5061119;28;20430;-75
2021/01/22 03:54:27;;;;;;;3.83;1.00;;;8.70;99.90;;;;;;5058999;28;20427;-75
2021/01/22 03:56:54;;;;;;;1.63;0.80;;;8.60;99.90;;;;;;5060834;28;20435;-75
2021/01/22 03:59:20;;;;;;;4.80;0.93;;;8.60;99.90;;;;;;5058555;28;20214;-76
2021/01/22 04:01:45;;;;;;;3.90;0.83;;;8.60;99.90;;;;;;5065524;28;20465;-75
2021/01/22 04:04:11;;;;;;;4.60;0.70;;;8.60;99.90;;;;;;5059821;28;20418;-75
2021/01/22 04:06:37;;;;;;;0.67;0.60;;;8.60;99.90;;;;;;5059901;28;20214;-76
2021/01/22 04:09:05;;;;;;;2.00;0.83;;;8.60;99.90;;;;;;5060666;28;20269;-76
2021/01/22 04:11:31;;;;;;;3.07;0.80;;;8.60;99.90;;;;;;5061207;28;20182;-75
2021/01/22 04:13:56;;;;;;;2.93;0.70;;;8.60;99.90;;;;;;5057603;28;20404;-76
2021/01/22 04:16:22;;;;;;;11.40;1.30;;;8.50;99.90;;;;;;5063435;28;20454;-75
2021/01/22 04:18:47;;;;;;;3.33;0.73;;;8.50;99.90;;;;;;5060395;28;20189;-75
2021/01/22 04:21:13;;;;;;;1.30;0.77;;;8.50;99.90;;;;;;5061205;28;20170;-76
2021/01/22 04:23:39;;;;;;;2.57;0.97;;;8.60;99.90;;;;;;5060881;28;20203;-76
2021/01/22 04:26:04;;;;;;;1.53;0.70;;;8.60;99.90;;;;;;5060894;28;20328;-75
2021/01/22 04:28:30;;;;;;;6.83;0.90;;;8.60;99.90;;;;;;5060594;28;20178;-76
2021/01/22 04:30:56;;;;;;;2.20;1.00;;;8.60;99.90;;;;;;5060933;28;20388;-75
2021/01/22 04:33:22;;;;;;;1.83;0.70;;;8.70;99.90;;;;;;5060557;28;20609;-76
2021/01/22 04:35:47;;;;;;;2.80;1.07;;;8.70;99.90;;;;;;5059036;28;20451;-75
2021/01/22 04:38:13;;;;;;;2.73;0.90;;;8.70;99.90;;;;;;5060574;28;20182;-73
2021/01/22 04:40:39;;;;;;;3.50;0.87;;;8.70;99.90;;;;;;5063610;28;20175;-75
2021/01/22 04:43:04;;;;;;;1.77;1.00;;;8.70;99.90;;;;;;5062402;28;20290;-75
2021/01/22 04:45:30;;;;;;;1.30;0.70;;;8.70;99.90;;;;;;5064013;28;20189;-75
2021/01/22 04:47:58;;;;;;;1.63;0.73;;;8.70;99.90;;;;;;5062042;28;20637;-75
2021/01/22 04:50:25;;;;;;;3.60;0.67;;;8.80;99.90;;;;;;5063286;28;20191;-76
2021/01/22 04:52:54;;;;;;;1.63;0.83;;;8.90;99.90;;;;;;5061724;28;20433;-75
2021/01/22 04:55:21;;;;;;;2.10;0.70;;;8.80;99.90;;;;;;5063583;28;20544;-76
2021/01/22 04:57:48;;;;;;;1.67;0.80;;;8.90;99.90;;;;;;5062006;28;20513;-75
2021/01/22 05:00:15;;;;;;;1.90;1.00;;;8.80;99.90;;;;;;5061952;28;20400;-76
2021/01/22 05:02:41;;;;;;;3.07;1.00;;;8.90;99.90;;;;;;5062879;28;20643;-76
2021/01/22 05:05:08;;;;;;;1.70;0.80;;;8.80;99.90;;;;;;5064015;28;20441;-76
2021/01/22 05:07:33;;;;;;;0.50;0.50;;;8.90;99.90;;;;;;5060312;28;20413;-76
2021/01/22 05:10:00;;;;;;;2.07;1.00;;;8.90;99.90;;;;;;5065071;28;20458;-75
2021/01/22 05:12:35;;;;;;;0.80;0.57;;;8.90;99.90;;;;;;5063391;28;20420;-75
2021/01/22 05:15:18;;;;;;;0.93;0.93;;;8.90;99.90;;;;;;5062379;28;20549;-75
2021/01/22 05:17:57;;;;;;;1.07;0.80;;;8.90;99.90;;;;;;5061405;28;20424;-75
2021/01/22 05:20:43;;;;;;;1.03;0.70;;;8.90;99.90;;;;;;5064488;28;20782;-76
2021/01/22 05:23:10;;;;;;;0.40;0.40;;;9.00;99.90;;;;;;5062748;28;20814;-76
2021/01/22 05:25:58;;;;;;;1.77;0.70;;;9.00;99.90;;;;;;5064001;28;20482;-76
2021/01/22 05:28:34;;;;;;;1.90;0.60;;;9.00;99.90;;;;;;5062598;28;20478;-75
2021/01/22 05:31:01;;;;;;;0.60;0.60;;;9.00;99.90;;;;;;5060027;28;20420;-76
2021/01/22 05:33:27;;;;;;;4.90;0.50;;;9.00;99.90;;;;;;5062563;28;20951;-76
2021/01/22 05:35:53;;;;;;;0.63;0.50;;;8.90;99.90;;;;;;5064364;28;20446;-76
2021/01/22 05:38:18;;;;;;;0.90;0.50;;;8.90;99.90;;;;;;5061701;28;20237;-76
2021/01/22 05:40:50;;;;;;;1.17;0.50;;;8.90;99.90;;;;;;5063149;28;20663;-76
2021/01/22 05:43:17;;;;;;;0.70;0.50;;;8.90;99.90;;;;;;5061203;28;20206;-76
2021/01/22 05:45:44;;;;;;;4.63;0.50;;;8.90;99.90;;;;;;5065651;28;20444;-76
2021/01/22 05:48:36;;;;;;;0.50;0.50;;;8.80;99.90;;;;;;5060359;28;20441;-76
2021/01/22 05:51:02;;;;;;;1.17;0.50;;;8.80;99.90;;;;;;5059567;28;20501;-76
2021/01/22 05:53:28;;;;;;;1.23;0.70;;;8.80;99.90;;;;;;5062642;28;20437;-76
2021/01/22 05:56:15;;;;;;;1.17;0.50;;;8.80;99.90;;;;;;5062858;28;20208;-76
2021/01/22 05:58:46;;;;;;;3.03;0.50;;;8.80;99.90;;;;;;5062810;28;20466;-76
2021/01/22 06:01:12;;;;;;;1.10;0.53;;;8.80;99.90;;;;;;5060351;28;20471;-76
2021/01/22 06:03:39;;;;;;;0.60;0.50;;;8.80;99.90;;;;;;5064471;28;20523;-76
2021/01/22 06:06:07;;;;;;;0.60;0.53;;;8.90;99.90;;;;;;5043034;28;20462;-76
2021/01/22 06:08:33;;;;;;;3.13;0.63;;;8.90;99.90;;;;;;5066128;28;20782;-74
2021/01/22 06:11:00;;;;;;;0.60;0.50;;;9.00;99.90;;;;;;5058953;28;20417;-76
2021/01/22 06:13:27;;;;;;;0.90;0.50;;;9.00;99.90;;;;;;5064128;28;20426;-76
2021/01/22 06:15:58;;;;;;;3.80;0.40;;;9.00;99.90;;;;;;5061474;28;20502;-76
2021/01/22 06:18:29;;;;;;;1.03;0.40;;;9.00;99.90;;;;;;5061728;28;20867;-75
2021/01/22 06:21:07;;;;;;;0.73;0.50;;;9.00;99.90;;;;;;5062673;28;20428;-74
2021/01/22 06:23:34;;;;;;;2.63;0.50;;;9.00;99.90;;;;;;5060057;28;20474;-76
2021/01/22 06:26:02;;;;;;;0.87;0.50;;;9.00;99.90;;;;;;5059891;28;20458;-76
2021/01/22 06:28:29;;;;;;;0.90;0.40;;;9.00;99.90;;;;;;5064439;28;20434;-75
2021/01/22 06:30:55;;;;;;;1.43;0.40;;;9.00;99.90;;;;;;5063155;28;20540;-76
2021/01/22 06:33:21;;;;;;;0.50;0.40;;;9.00;99.90;;;;;;5060331;28;20994;-75
2021/01/22 06:35:49;;;;;;;2.30;0.50;;;9.00;99.90;;;;;;5066592;28;20211;-74
2021/01/22 06:38:17;;;;;;;0.50;0.50;;;9.00;99.90;;;;;;5060959;28;20862;-74
2021/01/22 06:40:43;;;;;;;0.80;0.80;;;9.00;99.90;;;;;;5059979;28;20943;-74
2021/01/22 06:43:09;;;;;;;0.60;0.40;;;9.00;99.90;;;;;;5067059;28;20467;-74
2021/01/22 06:45:34;;;;;;;2.60;0.50;;;9.00;99.90;;;;;;5061762;28;20203;-74
2021/01/22 06:48:05;;;;;;;2.00;0.53;;;9.00;99.90;;;;;;5062434;28;20513;-74
2021/01/22 06:50:32;;;;;;;0.80;0.70;;;8.90;99.90;;;;;;5063559;28;20183;-74
2021/01/22 06:53:12;;;;;;;0.57;0.57;;;9.00;99.90;;;;;;5062369;28;20437;-74
2021/01/22 06:55:51;;;;;;;0.57;0.40;;;8.90;99.90;;;;;;5088818;28;20451;-74
2021/01/22 06:58:29;;;;;;;2.73;0.60;;;8.90;99.90;;;;;;5063206;28;20425;-73
2021/01/22 07:01:03;;;;;;;4.57;0.60;;;9.00;99.90;;;;;;5063267;28;20432;-72
2021/01/22 07:03:35;;;;;;;0.70;0.50;;;9.00;99.90;;;;;;5056797;28;20465;-72
2021/01/22 07:06:01;;;;;;;0.60;0.40;;;9.00;99.90;;;;;;5061266;28;20783;-72
2021/01/22 07:08:52;;;;;;;1.97;0.53;;;9.10;99.90;;;;;;5064448;28;20993;-72
2021/01/22 07:11:18;;;;;;;0.40;0.40;;;9.00;99.90;;;;;;5067205;28;20465;-72
2021/01/22 07:13:46;;;;;;;0.80;0.50;;;9.00;99.90;;;;;;5062045;28;20436;-74
2021/01/22 07:16:35;;;;;;;1.27;0.40;;;9.00;99.90;;;;;;5044309;28;20454;-71
2021/01/22 07:19:02;;;;;;;1.90;0.50;;;9.00;99.90;;;;;;5063211;28;20437;-72
2021/01/22 07:21:29;;;;;;;0.97;0.57;;;9.00;99.90;;;;;;5058656;28;20785;-72
2021/01/22 07:24:04;;;;;;;0.73;0.50;;;9.00;99.90;;;;;;5060376;28;20486;-72
2021/01/22 07:26:46;;;;;;;0.77;0.50;;;9.00;99.90;;;;;;5062081;28;20465;-72
2021/01/22 07:29:16;;;;;;;1.10;0.50;;;9.00;99.90;;;;;;5061132;28;20450;-72
2021/01/22 07:32:01;;;;;;;0.80;0.67;;;9.00;99.90;;;;;;5064386;28;20806;-73
2021/01/22 07:34:36;;;;;;;1.00;0.50;;;9.00;99.90;;;;;;5062793;28;20472;-72
2021/01/22 07:37:03;;;;;;;2.00;0.70;;;9.00;99.90;;;;;;5062899;28;20429;-73
2021/01/22 07:39:29;;;;;;;1.40;0.57;;;9.10;99.90;;;;;;5066177;28;20588;-72
2021/01/22 07:42:14;;;;;;;2.60;0.67;;;9.10;99.90;;;;;;5064979;28;20564;-72
2021/01/22 07:44:42;;;;;;;1.60;0.50;;;9.10;99.90;;;;;;5064783;28;20430;-72
2021/01/22 07:47:09;;;;;;;2.00;0.80;;;9.20;99.90;;;;;;5057703;28;20923;-74
2021/01/22 07:49:35;;;;;;;1.00;0.40;;;9.20;99.90;;;;;;5062633;28;20430;-72
2021/01/22 07:52:04;;;;;;;0.50;0.40;;;9.20;99.90;;;;;;5068644;28;20422;-72
2021/01/22 07:54:41;;;;;;;1.10;0.53;;;9.20;99.90;;;;;;5064122;28;20190;-70
2021/01/22 07:57:14;;;;;;;1.80;0.50;;;9.30;99.90;;;;;;5060409;28;20440;-72
2021/01/22 07:59:41;;;;;;;1.57;0.50;;;9.40;99.90;;;;;;5064167;28;20428;-74
2021/01/22 08:02:15;;;;;;;1.97;0.70;;;9.40;99.90;;;;;;5060412;28;21009;-73
2021/01/22 08:04:41;;;;;;;0.93;0.60;;;9.40;99.90;;;;;;5060845;28;20787;-73
2021/01/22 08:07:06;;;;;;;1.30;0.60;;;9.50;99.90;;;;;;5057727;28;20422;-74
2021/01/22 08:09:32;;;;;;;1.00;0.53;;;9.60;99.90;;;;;;5061299;28;20472;-72
2021/01/22 08:12:09;;;;;;;1.07;0.50;;;9.70;99.90;;;;;;5060140;28;20269;-73
2021/01/22 08:14:36;;;;;;;2.77;0.63;;;9.70;99.90;;;;;;5064767;28;20204;-73
2021/01/22 08:17:04;;;;;;;1.70;0.50;;;9.80;99.90;;;;;;5063989;28;20473;-72
2021/01/22 08:19:31;;;;;;;0.80;0.47;;;9.80;99.90;;;;;;5064457;28;20574;-72
2021/01/22 08:21:57;;;;;;;0.87;0.50;;;9.90;99.90;;;;;;5065631;28;20549;-72
2021/01/22 08:24:23;;;;;;;1.10;0.43;;;10.00;99.90;;;;;;5067651;28;20511;-72
2021/01/22 08:26:59;;;;;;;1.43;0.50;;;10.00;99.90;;;;;;5063959;28;20210;-73
2021/01/22 08:29:27;;;;;;;2.03;0.53;;;10.10;99.90;;;;;;5067004;28;20487;-72
2021/01/22 08:31:53;;;;;;;0.80;0.50;;;10.10;99.90;;;;;;5067544;28;20457;-72
2021/01/22 08:34:20;;;;;;;1.37;0.70;;;10.30;99.90;;;;;;5067443;28;20421;-73
2021/01/22 08:36:48;;;;;;;4.40;1.17;;;10.40;99.90;;;;;;5066630;28;20474;-73
2021/01/22 08:39:14;;;;;;;1.20;0.63;;;10.50;99.90;;;;;;5067245;28;20444;-73
2021/01/22 08:41:40;;;;;;;1.63;0.60;;;10.60;99.90;;;;;;5069442;28;20413;-73
2021/01/22 08:44:05;;;;;;;1.50;0.70;;;10.70;99.90;;;;;;5063609;28;20215;-73
2021/01/22 08:46:31;;;;;;;2.40;1.10;;;10.60;99.90;;;;;;5067472;28;20223;-73
2021/01/22 08:48:57;;;;;;;2.30;0.57;;;10.60;99.90;;;;;;5063324;28;20224;-74
2021/01/22 08:51:29;;;;;;;1.67;0.50;;;10.60;99.90;;;;;;5063512;28;20412;-72
2021/01/22 08:53:56;;;;;;;0.60;0.60;;;10.70;99.90;;;;;;5066665;28;20183;-73
2021/01/22 08:56:22;;;;;;;0.60;0.60;;;10.70;99.90;;;;;;5067172;28;20474;-73
2021/01/22 08:59:00;;;;;;;0.97;0.70;;;10.90;99.90;;;;;;5059283;28;20460;-74
2021/01/22 09:01:48;;;;;;;2.53;0.73;;;10.90;99.90;;;;;;5063189;28;20437;-74
2021/01/22 09:04:34;;;;;;;4.30;0.60;;;11.20;99.90;;;;;;5065189;28;20443;-73
2021/01/22 09:07:04;;;;;;;1.87;0.70;;;11.20;99.90;;;;;;5065641;28;20418;-74
2021/01/22 09:09:39;;;;;;;3.80;0.60;;;11.30;99.90;;;;;;5066813;28;20427;-74
2021/01/22 09:12:11;;;;;;;1.93;0.60;;;11.40;99.90;;;;;;5062657;28;20428;-75
2021/01/22 09:14:57;;;;;;;1.23;0.70;;;11.30;99.90;;;;;;5070286;28;20488;-74
2021/01/22 09:17:42;;;;;;;1.37;0.60;;;11.30;99.90;;;;;;5062359;28;20777;-73
2021/01/22 09:20:19;;;;;;;2.77;0.67;;;11.30;99.90;;;;;;5060281;28;20844;-74
2021/01/22 09:22:46;;;;;;;1.23;0.60;;;11.30;99.90;;;;;;5061904;28;20702;-73
2021/01/22 09:25:15;;;;;;;1.10;0.70;;;11.30;99.90;;;;;;5059814;28;20445;-73
2021/01/22 09:27:41;;;;;;;1.90;0.80;;;11.50;99.90;;;;;;5062391;28;21005;-74
2021/01/22 09:30:12;;;;;;;0.60;0.60;;;11.60;99.90;;;;;;5059885;28;20419;-73
2021/01/22 09:32:40;;;;;;;1.67;0.50;;;11.80;99.90;;;;;;5062658;28;20449;-74
2021/01/22 09:35:06;;;;;;;10.03;0.70;;;12.00;99.90;;;;;;5059727;28;20943;-74
2021/01/22 09:37:32;;;;;;;1.83;0.60;;;12.20;99.90;;;;;;5063595;28;20419;-74
2021/01/22 09:39:58;;;;;;;1.50;0.80;;;12.40;99.90;;;;;;5062500;28;20422;-74
2021/01/22 09:42:24;;;;;;;1.37;0.63;;;12.60;99.90;;;;;;5060505;28;20455;-72
2021/01/22 09:44:49;;;;;;;0.90;0.60;;;12.50;99.90;;;;;;5062435;28;20201;-74
2021/01/22 09:47:15;;;;;;;1.53;0.90;;;12.50;99.90;;;;;;5062726;28;20692;-74
2021/01/22 09:49:41;;;;;;;3.77;0.63;;;12.50;99.90;;;;;;5059683;28;20264;-75
2021/01/22 09:52:06;;;;;;;0.87;0.70;;;12.40;99.90;;;;;;5064005;28;20662;-74
2021/01/22 09:54:32;;;;;;;1.77;1.00;;;12.30;99.90;;;;;;5062918;28;20191;-74
2021/01/22 09:56:58;;;;;;;1.13;0.60;;;12.20;99.90;;;;;;5043728;28;20235;-74
2021/01/22 09:59:23;;;;;;;2.87;0.80;;;12.00;99.90;;;;;;5063968;28;20196;-74
2021/01/22 10:01:49;;;;;;;1.67;0.60;;;12.00;99.90;;;;;;5060368;28;20181;-75
2021/01/22 10:04:14;;;;;;;1.73;0.67;;;12.10;99.90;;;;;;5062239;28;20192;-74
2021/01/22 10:06:40;;;;;;;2.80;0.60;;;12.70;99.90;;;;;;5063909;28;20200;-73
2021/01/22 10:09:09;;;;;;;3.27;0.87;;;13.30;99.90;;;;;;5063027;28;20172;-73
2021/01/22 10:11:38;;;;;;;1.60;1.00;;;13.50;99.90;;;;;;5061202;28;20235;-73
2021/01/22 10:14:04;;;;;;;2.07;1.00;;;13.70;99.90;;;;;;5065756;28;20622;-73
2021/01/22 10:16:30;;;;;;;4.43;0.80;;;13.70;99.90;;;;;;5067948;28;20546;-73
2021/01/22 10:18:56;;;;;;;2.27;0.73;;;13.60;99.90;;;;;;5062283;28;20185;-73
2021/01/22 10:21:22;;;;;;;1.47;0.80;;;13.40;99.90;;;;;;5067052;28;20192;-74
2021/01/22 10:23:49;;;;;;;7.80;0.80;;;13.20;99.90;;;;;;5060067;28;20462;-73
2021/01/22 10:26:16;;;;;;;1.03;0.60;;;13.10;99.90;;;;;;5064376;28;20442;-75
2021/01/22 10:28:42;;;;;;;2.60;1.03;;;12.90;99.90;;;;;;5062557;28;20462;-74
2021/01/22 10:31:07;;;;;;;2.40;0.60;;;12.90;99.90;;;;;;5064322;28;20884;-74
2021/01/22 10:33:33;;;;;;;4.27;0.70;;;12.90;99.90;;;;;;5063693;28;20188;-73
2021/01/22 10:35:59;;;;;;;7.10;1.00;;;13.10;99.90;;;;;;5063252;28;20683;-74
2021/01/22 10:38:26;;;;;;;0.60;0.40;;;13.30;99.90;;;;;;5060998;28;20461;-74
2021/01/22 10:40:53;;;;;;;1.53;0.70;;;13.40;99.90;;;;;;5061155;28;20181;-74
2021/01/22 10:43:18;;;;;;;0.70;0.70;;;13.70;99.90;;;;;;5066941;28;20486;-74
2021/01/22 10:45:44;;;;;;;4.17;0.83;;;13.90;99.90;;;;;;5059210;28;20474;-75
2021/01/22 10:48:10;;;;;;;1.63;0.70;;;14.20;99.90;;;;;;5069980;28;20266;-73
2021/01/22 10:50:35;;;;;;;1.00;0.53;;;14.50;99.90;;;;;;5064148;28;20585;-74
2021/01/22 10:53:01;;;;;;;1.17;0.80;;;14.70;99.90;;;;;;5065718;28;20719;-73
2021/01/22 10:55:26;;;;;;;1.57;0.50;;;14.90;99.90;;;;;;5063474;28;20196;-74
2021/01/22 10:57:52;;;;;;;1.53;0.60;;;15.00;99.90;;;;;;5063004;28;20192;-74
2021/01/22 11:00:18;;;;;;;6.13;0.70;;;15.20;99.90;;;;;;5089755;28;20192;-74
2021/01/22 11:02:43;;;;;;;0.90;0.60;;;15.10;99.90;;;;;;5060213;28;20678;-73
2021/01/22 11:05:09;;;;;;;1.27;0.50;;;15.00;99.90;;;;;;5061366;28;20449;-74
2021/01/22 11:07:35;;;;;;;1.50;0.70;;;14.90;99.90;;;;;;5058383;28;20517;-74
2021/01/22 11:10:01;;;;;;;0.60;0.50;;;14.90;99.90;;;;;;5060983;28;20423;-74
2021/01/22 11:12:26;;;;;;;0.93;0.60;;;14.80;99.90;;;;;;5058462;28;20196;-74
2021/01/22 11:14:52;;;;;;;0.77;0.60;;;14.60;99.90;;;;;;5062631;28;20762;-75
2021/01/22 11:17:17;;;;;;;1.23;0.60;;;14.60;99.90;;;;;;5061324;28;20185;-74
2021/01/22 11:19:43;;;;;;;2.03;0.40;;;14.70;99.90;;;;;;5063887;28;20176;-74
2021/01/22 11:22:09;;;;;;;4.00;0.60;;;14.60;99.90;;;;;;5060208;28;20421;-74
2021/01/22 11:24:35;;;;;;;0.60;0.50;;;14.40;99.90;;;;;;5060066;28;20177;-74
2021/01/22 11:27:00;;;;;;;1.53;0.50;;;14.30;99.90;;;;;;5061076;28;20646;-74
2021/01/22 11:29:26;;;;;;;0.77;0.70;;;14.20;99.90;;;;;;5060045;28;20468;-74
2021/01/22 11:31:52;;;;;;;0.60;0.57;;;14.00;99.90;;;;;;5058660;28;20519;-74
2021/01/22 11:34:17;;;;;;;1.97;0.60;;;14.00;99.90;;;;;;5061191;28;20181;-75
2021/01/22 11:36:43;;;;;;;1.10;0.50;;;14.10;99.90;;;;;;5063397;28;20670;-73
2021/01/22 11:39:08;;;;;;;0.80;0.73;;;14.00;99.90;;;;;;5057232;28;20179;-74
2021/01/22 11:41:34;;;;;;;2.30;0.50;;;14.00;99.90;;;;;;5060824;28;20663;-74
2021/01/22 11:43:59;;;;;;;4.77;0.60;;;14.10;99.90;;;;;;5061997;28;20211;-74
2021/01/22 11:46:25;;;;;;;0.47;0.47;;;14.20;99.90;;;;;;5063706;28;20200;-74
2021/01/22 11:48:51;;;;;;;0.50;0.50;;;14.30;99.90;;;;;;5063680;28;20184;-75
2021/01/22 11:51:17;;;;;;;0.70;0.70;;;14.20;99.90;;;;;;5064617;28;20180;-74
2021/01/22 11:53:42;;;;;;;0.83;0.60;;;14.20;99.90;;;;;;5065783;28;20454;-74
2021/01/22 11:56:09;;;;;;;1.07;0.50;;;14.20;99.90;;;;;;5069342;28;20204;-74
2021/01/22 11:58:34;;;;;;;1.90;0.60;;;14.30;99.90;;;;;;5067950;28;20218;-74
2021/01/22 12:01:00;;;;;;;0.80;0.53;;;14.20;99.90;;;;;;5064412;28;20853;-74
2021/01/22 12:03:26;;;;;;;0.80;0.50;;;14.20;99.90;;;;;;5064211;28;20205;-74
2021/01/22 12:05:51;;;;;;;1.23;0.50;;;14.00;99.90;;;;;;5068401;28;20307;-74
2021/01/22 12:08:17;;;;;;;0.60;0.50;;;13.80;99.90;;;;;;5062767;28;20177;-75
2021/01/22 12:10:43;;;;;;;1.10;0.60;;;13.70;99.90;;;;;;5069566;28;20315;-74
2021/01/22 12:13:08;;;;;;;2.70;0.63;;;13.70;99.90;;;;;;5064930;28;20215;-74
2021/01/22 12:15:34;;;;;;;0.87;0.70;;;13.70;99.90;;;;;;5067837;28;20188;-74
2021/01/22 12:18:00;;;;;;;1.07;0.60;;;13.60;99.90;;;;;;5061189;28;20177;-75
2021/01/22 12:20:29;;;;;;;3.20;0.60;;;13.50;99.90;;;;;;5064878;28;20192;-75
2021/01/22 12:22:55;;;;;;;3.43;0.50;;;13.60;99.90;;;;;;5063305;28;20466;-75
2021/01/22 12:25:38;;;;;;;1.00;0.67;;;13.60;99.90;;;;;;5067890;28;20518;-77
2021/01/22 12:28:09;;;;;;;0.60;0.60;;;13.60;99.90;;;;;;5064194;28;20650;-75
2021/01/22 12:30:35;;;;;;;0.70;0.60;;;13.60;99.90;;;;;;5061612;28;20885;-74
2021/01/22 12:33:01;;;;;;;0.63;0.63;;;13.60;99.90;;;;;;5064822;28;20442;-75
2021/01/22 12:35:27;;;;;;;1.00;0.70;;;13.70;99.90;;;;;;5061019;28;20243;-75
2021/01/22 12:37:52;;;;;;;4.40;0.60;;;13.80;99.90;;;;;;5063396;28;20571;-74
2021/01/22 12:40:18;;;;;;;0.60;0.60;;;13.90;99.90;;;;;;5061804;28;20422;-73
2021/01/22 12:42:43;;;;;;;1.07;0.53;;;14.00;99.90;;;;;;5066793;28;20590;-73
2021/01/22 12:45:09;;;;;;;3.50;0.60;;;14.20;99.90;;;;;;5063101;28;20280;-73
2021/01/22 12:47:35;;;;;;;0.70;0.50;;;14.30;99.90;;;;;;5064103;28;20526;-73
2021/01/22 12:50:00;;;;;;;0.60;0.50;;;14.30;99.90;;;;;;5061028;28;20803;-73
2021/01/22 12:52:26;;;;;;;1.00;0.50;;;14.30;99.90;;;;;;5066497;28;20187;-73
2021/01/22 12:54:51;;;;;;;0.80;0.50;;;14.40;99.90;;;;;;5065370;28;20196;-73
2021/01/22 12:57:17;;;;;;;1.03;0.80;;;14.40;99.90;;;;;;5064278;28;20185;-73